sensor_id;sensor_type;location;lat;lon;timestamp;P1;durP1;ratioP1;P2;durP2;ratioP2
22863;SDS011;11599;49.882;8.680;2022-08-23T00:03:00;6.45;;;2.00;;
22863;SDS011;11599;49.882;8.680;2022-08-23T00:13:21;4.35;;;1.90;;
22863;SDS011;11599;49.882;8.680;2022-08-23T00:23:44;4.00;;;1.80;;
22863;SDS011;11599;49.882;8.680;2022-08-23T00:34:06;4.38;;;1.90;;
22863;SDS011;11599;49.882;8.680;2022-08-23T00:44:31;6.32;;;1.92;;
22863;SDS011;11599;49.882;8.680;2022-08-23T00:55:11;2.20;;;1.73;;
22863;SDS011;11599;49.882;8.680;2022-08-23T01:05:35;3.63;;;2.10;;
22863;SDS011;11599;49.882;8.680;2022-08-23T01:15:59;3.80;;;1.88;;
22863;SDS011;11599;49.882;8.680;2022-08-23T01:26:25;4.88;;;1.83;;
22863;SDS011;11599;49.882;8.680;2022-08-23T01:36:48;3.60;;;1.70;;
22863;SDS011;11599;49.882;8.680;2022-08-23T01:47:12;3.95;;;1.70;;
22863;SDS011;11599;49.882;8.680;2022-08-23T01:57:33;3.17;;;1.98;;
22863;SDS011;11599;49.882;8.680;2022-08-23T02:07:59;2.50;;;1.70;;
22863;SDS011;11599;49.882;8.680;2022-08-23T02:18:43;5.32;;;1.85;;
22863;SDS011;11599;49.882;8.680;2022-08-23T02:29:06;3.13;;;1.92;;
22863;SDS011;11599;49.882;8.680;2022-08-23T02:39:28;5.47;;;1.90;;
22863;SDS011;11599;49.882;8.680;2022-08-23T02:49:51;4.20;;;1.77;;
22863;SDS011;11599;49.882;8.680;2022-08-23T03:00:14;4.53;;;1.77;;
22863;SDS011;11599;49.882;8.680;2022-08-23T03:10:42;7.15;;;2.42;;
22863;SDS011;11599;49.882;8.680;2022-08-23T03:21:04;4.13;;;2.05;;
22863;SDS011;11599;49.882;8.680;2022-08-23T03:31:28;5.67;;;1.97;;
22863;SDS011;11599;49.882;8.680;2022-08-23T03:41:58;11.73;;;2.10;;
22863;SDS011;11599;49.882;8.680;2022-08-23T03:52:23;4.00;;;2.07;;
22863;SDS011;11599;49.882;8.680;2022-08-23T04:02:45;6.33;;;2.27;;
22863;SDS011;11599;49.882;8.680;2022-08-23T04:13:09;3.10;;;2.00;;
22863;SDS011;11599;49.882;8.680;2022-08-23T04:23:31;4.10;;;2.07;;
22863;SDS011;11599;49.882;8.680;2022-08-23T04:33:54;4.73;;;2.10;;
22863;SDS011;11599;49.882;8.680;2022-08-23T04:44:17;7.13;;;2.53;;
22863;SDS011;11599;49.882;8.680;2022-08-23T04:54:42;4.27;;;2.03;;
22863;SDS011;11599;49.882;8.680;2022-08-23T05:05:20;3.40;;;2.00;;
22863;SDS011;11599;49.882;8.680;2022-08-23T05:15:44;8.93;;;2.10;;
22863;SDS011;11599;49.882;8.680;2022-08-23T05:26:06;3.30;;;2.20;;
22863;SDS011;11599;49.882;8.680;2022-08-23T05:36:34;5.23;;;2.20;;
22863;SDS011;11599;49.882;8.680;2022-08-23T05:46:57;5.83;;;2.40;;
22863;SDS011;11599;49.882;8.680;2022-08-23T05:57:25;4.43;;;2.23;;
22863;SDS011;11599;49.882;8.680;2022-08-23T06:07:47;5.07;;;2.47;;
22863;SDS011;11599;49.882;8.680;2022-08-23T06:18:10;7.20;;;2.00;;
22863;SDS011;11599;49.882;8.680;2022-08-23T06:28:34;6.17;;;2.10;;
22863;SDS011;11599;49.882;8.680;2022-08-23T06:38:57;4.75;;;2.10;;
22863;SDS011;11599;49.882;8.680;2022-08-23T06:49:39;4.20;;;2.25;;
22863;SDS011;11599;49.882;8.680;2022-08-23T07:00:02;4.18;;;2.38;;
22863;SDS011;11599;49.882;8.680;2022-08-23T07:10:47;7.70;;;2.03;;
22863;SDS011;11599;49.882;8.680;2022-08-23T07:21:10;3.20;;;1.83;;
22863;SDS011;11599;49.882;8.680;2022-08-23T07:31:37;5.05;;;2.10;;
22863;SDS011;11599;49.882;8.680;2022-08-23T07:42:01;5.45;;;1.98;;
22863;SDS011;11599;49.882;8.680;2022-08-23T07:52:24;3.70;;;2.10;;
22863;SDS011;11599;49.882;8.680;2022-08-23T08:02:47;5.50;;;1.77;;
22863;SDS011;11599;49.882;8.680;2022-08-23T08:13:16;3.10;;;1.90;;
22863;SDS011;11599;49.882;8.680;2022-08-23T08:23:39;3.28;;;1.65;;
22863;SDS011;11599;49.882;8.680;2022-08-23T08:34:23;5.63;;;1.80;;
22863;SDS011;11599;49.882;8.680;2022-08-23T08:44:48;3.20;;;1.80;;
22863;SDS011;11599;49.882;8.680;2022-08-23T08:55:16;3.85;;;1.95;;
22863;SDS011;11599;49.882;8.680;2022-08-23T09:05:45;4.97;;;2.17;;
22863;SDS011;11599;49.882;8.680;2022-08-23T09:16:12;4.47;;;1.88;;
22863;SDS011;11599;49.882;8.680;2022-08-23T09:26:38;7.57;;;2.20;;
22863;SDS011;11599;49.882;8.680;2022-08-23T09:37:04;3.53;;;1.92;;
22863;SDS011;11599;49.882;8.680;2022-08-23T09:47:32;3.72;;;2.00;;
22863;SDS011;11599;49.882;8.680;2022-08-23T09:57:54;3.97;;;2.03;;
22863;SDS011;11599;49.882;8.680;2022-08-23T10:08:21;7.05;;;2.35;;
22863;SDS011;11599;49.882;8.680;2022-08-23T10:18:50;9.25;;;2.55;;
22863;SDS011;11599;49.882;8.680;2022-08-23T10:29:18;7.15;;;2.47;;
22863;SDS011;11599;49.882;8.680;2022-08-23T10:40:03;6.80;;;2.08;;
22863;SDS011;11599;49.882;8.680;2022-08-23T10:50:35;4.53;;;2.20;;
22863;SDS011;11599;49.882;8.680;2022-08-23T11:01:00;4.93;;;2.33;;
22863;SDS011;11599;49.882;8.680;2022-08-23T11:11:43;7.93;;;2.30;;
22863;SDS011;11599;49.882;8.680;2022-08-23T11:22:13;5.00;;;2.50;;
22863;SDS011;11599;49.882;8.680;2022-08-23T11:32:40;3.15;;;2.20;;
22863;SDS011;11599;49.882;8.680;2022-08-23T11:43:06;3.55;;;2.50;;
22863;SDS011;11599;49.882;8.680;2022-08-23T11:53:35;5.15;;;2.53;;
22863;SDS011;11599;49.882;8.680;2022-08-23T12:04:01;4.60;;;2.28;;
22863;SDS011;11599;49.882;8.680;2022-08-23T12:14:34;3.60;;;2.38;;
22863;SDS011;11599;49.882;8.680;2022-08-23T12:24:57;3.88;;;2.53;;
22863;SDS011;11599;49.882;8.680;2022-08-23T12:35:27;6.35;;;2.65;;
22863;SDS011;11599;49.882;8.680;2022-08-23T12:45:51;5.13;;;2.42;;
22863;SDS011;11599;49.882;8.680;2022-08-23T12:56:16;10.88;;;2.45;;
22863;SDS011;11599;49.882;8.680;2022-08-23T13:06:39;4.47;;;2.60;;
22863;SDS011;11599;49.882;8.680;2022-08-23T13:17:14;5.43;;;2.60;;
22863;SDS011;11599;49.882;8.680;2022-08-23T13:27:37;4.07;;;2.17;;
22863;SDS011;11599;49.882;8.680;2022-08-23T13:38:14;5.18;;;2.38;;
22863;SDS011;11599;49.882;8.680;2022-08-23T13:48:36;5.75;;;2.30;;
22863;SDS011;11599;49.882;8.680;2022-08-23T13:59:02;3.17;;;2.20;;
22863;SDS011;11599;49.882;8.680;2022-08-23T14:09:24;3.13;;;2.20;;
22863;SDS011;11599;49.882;8.680;2022-08-23T14:19:47;3.90;;;2.03;;
22863;SDS011;11599;49.882;8.680;2022-08-23T14:30:10;4.13;;;2.20;;
22863;SDS011;11599;49.882;8.680;2022-08-23T14:40:33;2.55;;;1.90;;
22863;SDS011;11599;49.882;8.680;2022-08-23T14:50:55;3.72;;;2.10;;
22863;SDS011;11599;49.882;8.680;2022-08-23T15:01:18;7.68;;;2.42;;
22863;SDS011;11599;49.882;8.680;2022-08-23T15:11:40;4.93;;;2.50;;
22863;SDS011;11599;49.882;8.680;2022-08-23T15:22:03;4.43;;;2.42;;
22863;SDS011;11599;49.882;8.680;2022-08-23T15:32:26;3.88;;;2.33;;
22863;SDS011;11599;49.882;8.680;2022-08-23T15:42:49;8.27;;;2.55;;
22863;SDS011;11599;49.882;8.680;2022-08-23T15:53:11;3.63;;;2.20;;
22863;SDS011;11599;49.882;8.680;2022-08-23T16:03:34;11.82;;;3.13;;
22863;SDS011;11599;49.882;8.680;2022-08-23T16:13:56;6.38;;;2.30;;
22863;SDS011;11599;49.882;8.680;2022-08-23T16:24:19;4.30;;;2.22;;
22863;SDS011;11599;49.882;8.680;2022-08-23T16:34:40;9.60;;;2.70;;
22863;SDS011;11599;49.882;8.680;2022-08-23T16:45:04;4.35;;;2.33;;
22863;SDS011;11599;49.882;8.680;2022-08-23T16:55:25;5.70;;;2.60;;
22863;SDS011;11599;49.882;8.680;2022-08-23T17:05:48;3.70;;;2.22;;
22863;SDS011;11599;49.882;8.680;2022-08-23T17:16:10;5.93;;;2.50;;
22863;SDS011;11599;49.882;8.680;2022-08-23T17:26:33;4.13;;;2.20;;
22863;SDS011;11599;49.882;8.680;2022-08-23T17:36:54;5.90;;;2.40;;
22863;SDS011;11599;49.882;8.680;2022-08-23T17:47:17;5.40;;;2.60;;
22863;SDS011;11599;49.882;8.680;2022-08-23T17:57:39;4.30;;;2.30;;
22863;SDS011;11599;49.882;8.680;2022-08-23T18:08:02;8.43;;;2.70;;
22863;SDS011;11599;49.882;8.680;2022-08-23T18:18:24;4.80;;;2.40;;
22863;SDS011;11599;49.882;8.680;2022-08-23T18:28:47;15.07;;;2.40;;
22863;SDS011;11599;49.882;8.680;2022-08-23T18:39:09;12.60;;;3.00;;
22863;SDS011;11599;49.882;8.680;2022-08-23T18:49:33;16.00;;;3.10;;
22863;SDS011;11599;49.882;8.680;2022-08-23T18:59:54;10.82;;;2.90;;
22863;SDS011;11599;49.882;8.680;2022-08-23T19:10:19;5.97;;;2.47;;
22863;SDS011;11599;49.882;8.680;2022-08-23T19:20:40;5.00;;;2.53;;
22863;SDS011;11599;49.882;8.680;2022-08-23T19:31:10;4.15;;;2.45;;
22863;SDS011;11599;49.882;8.680;2022-08-23T19:41:31;5.18;;;2.55;;
22863;SDS011;11599;49.882;8.680;2022-08-23T19:51:55;10.23;;;2.45;;
22863;SDS011;11599;49.882;8.680;2022-08-23T20:02:17;6.07;;;3.33;;
22863;SDS011;11599;49.882;8.680;2022-08-23T20:12:40;6.93;;;2.50;;
22863;SDS011;11599;49.882;8.680;2022-08-23T20:23:01;5.57;;;2.85;;
22863;SDS011;11599;49.882;8.680;2022-08-23T20:33:42;6.80;;;3.00;;
22863;SDS011;11599;49.882;8.680;2022-08-23T20:44:04;4.22;;;2.53;;
22863;SDS011;11599;49.882;8.680;2022-08-23T20:54:27;8.88;;;3.10;;
22863;SDS011;11599;49.882;8.680;2022-08-23T21:04:48;5.43;;;3.20;;
22863;SDS011;11599;49.882;8.680;2022-08-23T21:15:11;5.93;;;3.60;;
22863;SDS011;11599;49.882;8.680;2022-08-23T21:25:33;8.38;;;3.28;;
22863;SDS011;11599;49.882;8.680;2022-08-23T21:35:55;6.03;;;3.38;;
22863;SDS011;11599;49.882;8.680;2022-08-23T21:46:17;5.53;;;3.13;;
22863;SDS011;11599;49.882;8.680;2022-08-23T21:56:41;4.88;;;3.17;;
22863;SDS011;11599;49.882;8.680;2022-08-23T22:07:02;7.15;;;3.67;;
22863;SDS011;11599;49.882;8.680;2022-08-23T22:17:25;5.53;;;3.20;;
22863;SDS011;11599;49.882;8.680;2022-08-23T22:27:47;8.13;;;3.40;;
22863;SDS011;11599;49.882;8.680;2022-08-23T22:38:10;7.38;;;2.78;;
22863;SDS011;11599;49.882;8.680;2022-08-23T22:48:32;7.32;;;3.15;;
22863;SDS011;11599;49.882;8.680;2022-08-23T22:58:55;7.07;;;3.10;;
22863;SDS011;11599;49.882;8.680;2022-08-23T23:09:18;8.95;;;2.83;;
22863;SDS011;11599;49.882;8.680;2022-08-23T23:19:41;5.95;;;3.05;;
22863;SDS011;11599;49.882;8.680;2022-08-23T23:30:20;7.13;;;2.60;;
22863;SDS011;11599;49.882;8.680;2022-08-23T23:40:43;10.18;;;2.35;;
22863;SDS011;11599;49.882;8.680;2022-08-23T23:51:08;5.85;;;2.25;;
